createdAt,value
2023-02-28T00:02:03.959Z,99.90
2023-02-28T00:04:53.902Z,99.90
2023-02-28T00:07:39.389Z,99.90
2023-02-28T00:10:30.373Z,99.90
2023-02-28T00:13:15.974Z,99.90
2023-02-28T00:16:02.669Z,99.90
2023-02-28T00:18:48.694Z,99.90
2023-02-28T00:21:34.372Z,99.90
2023-02-28T00:24:19.529Z,99.90
2023-02-28T00:27:04.976Z,99.90
2023-02-28T00:29:50.244Z,99.90
2023-02-28T00:32:35.633Z,99.90
2023-02-28T00:35:20.893Z,99.90
2023-02-28T00:38:06.660Z,99.90
2023-02-28T00:40:51.819Z,99.90
2023-02-28T00:43:38.659Z,99.90
2023-02-28T00:46:24.079Z,99.90
2023-02-28T00:49:09.478Z,99.90
2023-02-28T00:51:56.103Z,99.90
2023-02-28T00:54:41.417Z,99.90
2023-02-28T00:57:27.342Z,99.90
2023-02-28T01:00:13.170Z,99.90
2023-02-28T01:02:58.355Z,99.90
2023-02-28T01:05:43.717Z,99.90
2023-02-28T01:08:29.167Z,99.90
2023-02-28T01:11:17.076Z,99.90
2023-02-28T01:14:03.066Z,99.90
2023-02-28T01:16:48.465Z,99.90
2023-02-28T01:19:34.242Z,99.90
2023-02-28T01:22:19.682Z,99.90
2023-02-28T01:25:05.380Z,99.90
2023-02-28T01:27:50.664Z,99.90
2023-02-28T01:30:36.338Z,99.90
2023-02-28T01:33:21.689Z,99.90
2023-02-28T01:36:11.393Z,99.90
2023-02-28T01:38:56.894Z,99.90
2023-02-28T01:41:42.470Z,99.90
2023-02-28T01:44:58.271Z,99.90
2023-02-28T01:47:44.659Z,99.90
2023-02-28T01:50:36.349Z,99.90
2023-02-28T01:53:28.629Z,99.90
2023-02-28T01:56:21.366Z,99.90
2023-02-28T01:59:06.903Z,99.90
2023-02-28T02:01:52.509Z,99.90
2023-02-28T02:04:47.332Z,99.90
2023-02-28T02:07:36.322Z,99.90
2023-02-28T02:10:30.261Z,99.90
2023-02-28T02:13:44.763Z,99.90
2023-02-28T02:16:51.754Z,99.90
2023-02-28T02:20:07.951Z,99.90
2023-02-28T02:23:24.404Z,99.90
2023-02-28T02:26:12.463Z,99.90
2023-02-28T02:29:34.317Z,99.90
2023-02-28T02:33:05.437Z,99.90
2023-02-28T02:35:59.569Z,99.90
2023-02-28T02:38:52.782Z,99.90
2023-02-28T02:41:47.142Z,99.90
2023-02-28T02:44:48.664Z,99.90
2023-02-28T02:47:35.513Z,99.90
2023-02-28T02:50:26.795Z,99.90
2023-02-28T02:53:15.111Z,99.90
2023-02-28T02:56:02.389Z,99.90
2023-02-28T02:58:50.535Z,99.90
2023-02-28T03:01:38.334Z,99.90
2023-02-28T03:04:25.970Z,99.90
2023-02-28T03:07:11.381Z,99.90
2023-02-28T03:09:58.361Z,99.90
2023-02-28T03:12:57.628Z,99.90
2023-02-28T03:16:00.020Z,99.90
2023-02-28T03:19:05.330Z,99.90
2023-02-28T03:22:14.588Z,99.90
2023-02-28T03:25:21.716Z,99.90
2023-02-28T03:28:16.972Z,99.90
2023-02-28T03:31:17.970Z,99.90
2023-02-28T03:34:27.461Z,99.90
2023-02-28T03:37:17.804Z,99.90
2023-02-28T03:40:16.594Z,99.90
2023-02-28T03:43:09.236Z,99.90
2023-02-28T03:45:56.208Z,99.90
2023-02-28T03:48:49.141Z,99.90
2023-02-28T03:51:34.982Z,99.90
2023-02-28T03:54:26.265Z,99.90
2023-02-28T03:57:41.998Z,99.90
2023-02-28T04:00:39.554Z,99.90
2023-02-28T04:03:24.762Z,99.90
2023-02-28T04:06:17.714Z,99.90
2023-02-28T04:09:05.052Z,99.90
2023-02-28T04:11:54.457Z,99.90
2023-02-28T04:14:39.959Z,99.90
2023-02-28T04:17:25.328Z,99.90
2023-02-28T04:20:11.551Z,99.90
2023-02-28T04:22:56.954Z,99.90
2023-02-28T04:25:42.212Z,99.90
2023-02-28T04:28:27.662Z,99.90
2023-02-28T04:31:13.063Z,99.90
2023-02-28T04:33:58.450Z,99.90
2023-02-28T04:36:43.714Z,99.90
2023-02-28T04:39:28.956Z,99.90
2023-02-28T04:42:14.850Z,99.90
2023-02-28T04:45:00.187Z,99.90
2023-02-28T04:47:45.842Z,99.90
2023-02-28T04:50:30.838Z,99.90
2023-02-28T04:53:16.206Z,99.90
2023-02-28T04:56:01.809Z,99.90
2023-02-28T04:58:47.435Z,99.90
2023-02-28T05:01:34.669Z,99.90
2023-02-28T05:04:19.889Z,99.90
2023-02-28T05:07:05.490Z,99.90
2023-02-28T05:09:50.810Z,99.90
2023-02-28T05:12:36.091Z,99.90
2023-02-28T05:15:21.544Z,99.90
2023-02-28T05:18:07.000Z,99.90
2023-02-28T05:20:52.358Z,99.90
2023-02-28T05:23:38.512Z,99.90
2023-02-28T05:26:23.909Z,99.90
2023-02-28T05:29:10.156Z,99.90
2023-02-28T05:31:55.272Z,99.90
2023-02-28T05:34:41.393Z,99.90
2023-02-28T05:37:26.489Z,99.90
2023-02-28T05:40:12.259Z,99.90
2023-02-28T05:42:57.605Z,99.90
2023-02-28T05:45:42.995Z,99.90
2023-02-28T05:48:28.474Z,99.90
2023-02-28T05:51:14.010Z,99.90
2023-02-28T05:54:02.679Z,99.90
2023-02-28T05:56:47.848Z,99.90
2023-02-28T05:59:33.145Z,99.90
2023-02-28T06:02:18.998Z,99.90
2023-02-28T06:05:04.221Z,99.90
2023-02-28T06:07:49.583Z,99.90
2023-02-28T06:10:36.337Z,99.90
2023-02-28T06:13:22.025Z,99.90
2023-02-28T06:16:07.981Z,99.90
2023-02-28T06:18:53.777Z,99.90
2023-02-28T06:21:39.137Z,99.90
2023-02-28T06:24:26.083Z,99.90
2023-02-28T06:27:11.552Z,99.90
2023-02-28T06:29:57.072Z,99.90
2023-02-28T06:32:42.517Z,99.90
2023-02-28T06:35:27.780Z,99.90
2023-02-28T06:38:13.191Z,99.90
2023-02-28T06:41:00.742Z,99.90
2023-02-28T06:43:46.335Z,99.90
2023-02-28T06:46:31.746Z,99.90
2023-02-28T06:49:18.227Z,99.90
2023-02-28T06:52:04.155Z,99.90
2023-02-28T06:55:00.571Z,99.90
2023-02-28T06:57:45.740Z,99.90
2023-02-28T07:00:31.181Z,99.90
2023-02-28T07:03:16.595Z,99.90
2023-02-28T07:06:02.728Z,99.90
2023-02-28T07:08:48.124Z,99.90
2023-02-28T07:11:33.741Z,99.90
2023-02-28T07:14:18.833Z,99.90
2023-02-28T07:17:04.683Z,99.90
2023-02-28T07:19:50.483Z,99.90
2023-02-28T07:22:35.397Z,99.90
2023-02-28T07:25:20.813Z,99.90
2023-02-28T07:28:06.310Z,99.90
2023-02-28T07:30:51.630Z,99.90
2023-02-28T07:33:37.521Z,99.90
2023-02-28T07:36:22.726Z,99.90
2023-02-28T07:39:10.373Z,99.90
2023-02-28T07:41:55.592Z,99.90
2023-02-28T07:44:41.526Z,99.90
2023-02-28T07:47:27.082Z,99.90
2023-02-28T07:50:14.230Z,99.90
2023-02-28T07:53:00.227Z,99.90
2023-02-28T07:55:45.553Z,99.90
2023-02-28T07:58:31.849Z,99.90
2023-02-28T08:01:17.046Z,99.90
2023-02-28T08:04:02.400Z,99.90
2023-02-28T08:06:48.434Z,99.90
2023-02-28T08:09:33.938Z,99.90
2023-02-28T08:12:19.483Z,99.90
2023-02-28T08:15:05.309Z,99.90
2023-02-28T08:17:50.356Z,99.90
2023-02-28T08:20:35.584Z,99.90
2023-02-28T08:23:22.094Z,99.90
2023-02-28T08:26:07.576Z,99.90
2023-02-28T08:28:53.068Z,99.50
2023-02-28T08:31:38.450Z,99.90
2023-02-28T08:34:24.084Z,99.90
2023-02-28T08:37:09.362Z,99.90
2023-02-28T08:39:56.393Z,99.60
2023-02-28T08:42:42.002Z,98.80
2023-02-28T08:45:27.442Z,98.60
2023-02-28T08:48:12.697Z,97.50
2023-02-28T08:51:08.799Z,98.50
2023-02-28T08:54:00.829Z,97.90
2023-02-28T08:56:50.467Z,98.20
2023-02-28T08:59:35.721Z,97.90
2023-02-28T09:02:21.110Z,97.60
2023-02-28T09:05:07.037Z,97.30
2023-02-28T09:07:52.522Z,97.60
2023-02-28T09:10:37.890Z,97.50
2023-02-28T09:13:23.201Z,97.80
2023-02-28T09:16:11.658Z,97.90
2023-02-28T09:18:57.397Z,97.80
2023-02-28T09:21:42.584Z,97.30
2023-02-28T09:24:27.926Z,98.20
2023-02-28T09:27:13.246Z,98.10
2023-02-28T09:29:58.610Z,97.60
2023-02-28T09:32:54.629Z,97.20
2023-02-28T09:35:39.986Z,97.90
2023-02-28T09:38:25.613Z,96.70
2023-02-28T09:41:15.901Z,96.90
2023-02-28T09:44:04.235Z,97.10
2023-02-28T09:46:54.333Z,96.70
2023-02-28T09:49:47.536Z,97.70
2023-02-28T09:52:33.473Z,97.60
2023-02-28T09:55:26.344Z,97.90
2023-02-28T09:58:31.514Z,97.40
2023-02-28T10:01:49.405Z,99.60
2023-02-28T10:04:58.558Z,96.90
2023-02-28T10:08:06.779Z,96.60
2023-02-28T10:11:07.156Z,96.60
2023-02-28T10:13:55.322Z,96.10
2023-02-28T10:17:02.722Z,97.10
2023-02-28T10:19:50.871Z,95.40
2023-02-28T10:22:59.273Z,95.20
2023-02-28T10:25:50.992Z,95.90
2023-02-28T10:28:36.471Z,95.50
2023-02-28T10:31:22.676Z,95.40
2023-02-28T10:34:12.690Z,95.90
2023-02-28T10:37:08.171Z,95.20
2023-02-28T10:39:53.546Z,95.80
2023-02-28T10:42:39.931Z,95.80
2023-02-28T10:45:26.135Z,96.30
2023-02-28T10:48:14.172Z,96.20
2023-02-28T10:51:00.172Z,95.90
2023-02-28T10:54:03.083Z,94.70
2023-02-28T10:57:17.401Z,95.20
2023-02-28T11:00:20.573Z,93.60
2023-02-28T11:03:31.773Z,93.90
2023-02-28T11:06:22.036Z,93.80
2023-02-28T11:09:35.832Z,93.70
2023-02-28T11:12:34.011Z,93.30
2023-02-28T11:15:31.880Z,92.60
2023-02-28T11:18:29.852Z,93.00
2023-02-28T11:21:20.651Z,92.90
2023-02-28T11:24:19.716Z,92.80
2023-02-28T11:27:05.011Z,90.60
2023-02-28T11:29:50.630Z,91.50
2023-02-28T11:32:35.967Z,91.10
2023-02-28T11:35:31.724Z,90.60
2023-02-28T11:38:17.326Z,90.50
2023-02-28T11:41:24.601Z,90.70
2023-02-28T11:44:31.814Z,91.00
2023-02-28T11:47:39.021Z,90.00
2023-02-28T11:50:33.951Z,90.30
2023-02-28T11:53:41.447Z,90.90
2023-02-28T11:56:55.885Z,90.80
2023-02-28T12:00:18.888Z,91.00
2023-02-28T12:03:29.763Z,90.50
2023-02-28T12:06:33.707Z,90.30
2023-02-28T12:09:42.704Z,89.10
2023-02-28T12:13:05.845Z,88.70
2023-02-28T12:15:59.562Z,87.60
2023-02-28T12:19:16.036Z,87.60
2023-02-28T12:22:21.792Z,86.80
2023-02-28T12:25:07.170Z,87.60
2023-02-28T12:27:54.221Z,85.20
2023-02-28T12:30:47.799Z,84.70
2023-02-28T12:33:38.106Z,86.90
2023-02-28T12:36:24.864Z,86.90
2023-02-28T12:39:24.465Z,85.70
2023-02-28T12:42:18.430Z,84.90
2023-02-28T12:45:11.321Z,91.20
2023-02-28T12:48:02.362Z,84.80
2023-02-28T12:50:49.266Z,86.90
2023-02-28T12:54:14.147Z,86.30
2023-02-28T12:57:14.321Z,84.50
2023-02-28T13:00:13.056Z,84.50
2023-02-28T13:03:25.221Z,83.60
2023-02-28T13:06:24.166Z,84.10
2023-02-28T13:09:16.494Z,83.90
2023-02-28T13:12:02.096Z,82.50
2023-02-28T13:14:47.613Z,81.20
2023-02-28T13:17:34.168Z,82.30
2023-02-28T13:20:24.002Z,81.90
2023-02-28T13:23:38.367Z,82.90
2023-02-28T13:26:38.593Z,80.40
2023-02-28T13:29:35.044Z,81.90
2023-02-28T13:32:30.742Z,80.40
2023-02-28T13:35:35.205Z,80.90
2023-02-28T13:38:34.363Z,79.30
2023-02-28T13:41:31.920Z,80.40
2023-02-28T13:44:24.939Z,79.60
2023-02-28T13:47:13.246Z,78.50
2023-02-28T13:50:23.394Z,77.90
2023-02-28T13:53:14.680Z,79.00
2023-02-28T13:56:30.733Z,78.90
2023-02-28T13:59:29.432Z,77.80
2023-02-28T14:02:49.277Z,77.20
2023-02-28T14:05:35.505Z,76.70
2023-02-28T14:08:24.025Z,76.30
2023-02-28T14:11:43.457Z,76.10
2023-02-28T14:14:37.854Z,77.10
2023-02-28T14:17:23.919Z,76.40
2023-02-28T14:20:16.525Z,76.30
2023-02-28T14:23:14.055Z,76.10
2023-02-28T14:26:35.148Z,75.10
2023-02-28T14:29:38.623Z,75.20
2023-02-28T14:32:47.126Z,73.70
2023-02-28T14:35:52.053Z,75.70
2023-02-28T14:38:55.802Z,75.10
2023-02-28T14:41:44.617Z,75.60
2023-02-28T14:44:30.266Z,75.90
2023-02-28T14:47:17.272Z,76.70
2023-02-28T14:50:05.463Z,74.30
2023-02-28T14:52:57.053Z,75.50
2023-02-28T14:55:46.507Z,73.20
2023-02-28T14:58:34.255Z,74.60
2023-02-28T15:01:23.054Z,73.60
2023-02-28T15:04:22.165Z,73.60
2023-02-28T15:07:15.462Z,74.70
2023-02-28T15:10:13.170Z,74.60
2023-02-28T15:13:07.423Z,72.70
2023-02-28T15:16:02.741Z,73.80
2023-02-28T15:19:16.484Z,73.00
2023-02-28T15:22:29.937Z,74.50
2023-02-28T15:25:19.233Z,72.70
2023-02-28T15:28:04.463Z,73.10
2023-02-28T15:31:02.240Z,73.10
2023-02-28T15:33:56.032Z,73.40
2023-02-28T15:36:41.543Z,73.60
2023-02-28T15:39:29.133Z,71.90
2023-02-28T15:42:21.204Z,74.20
2023-02-28T15:45:06.989Z,70.90
2023-02-28T15:47:53.625Z,72.90
2023-02-28T15:50:39.287Z,72.20
2023-02-28T15:53:29.386Z,72.80
2023-02-28T15:56:18.500Z,73.00
2023-02-28T15:59:07.914Z,72.80
2023-02-28T16:02:13.707Z,73.90
2023-02-28T16:05:11.529Z,74.00
2023-02-28T16:07:58.344Z,74.40
2023-02-28T16:10:43.849Z,73.50
2023-02-28T16:13:29.201Z,74.30
2023-02-28T16:16:20.435Z,74.80
2023-02-28T16:19:06.126Z,72.60
2023-02-28T16:21:52.112Z,73.60
2023-02-28T16:24:37.858Z,74.50
2023-02-28T16:27:32.084Z,74.90
2023-02-28T16:30:25.150Z,75.60
2023-02-28T16:33:10.624Z,76.90
2023-02-28T16:35:55.965Z,75.60
2023-02-28T16:38:41.324Z,76.20
2023-02-28T16:41:29.158Z,76.40
2023-02-28T16:44:30.057Z,76.30
2023-02-28T16:47:15.646Z,76.50
2023-02-28T16:50:00.928Z,76.70
2023-02-28T16:52:46.528Z,77.30
2023-02-28T16:55:31.965Z,77.10
2023-02-28T16:58:18.286Z,77.50
2023-02-28T17:01:04.679Z,77.60
2023-02-28T17:03:50.603Z,81.30
2023-02-28T17:06:35.929Z,78.10
2023-02-28T17:09:28.260Z,80.50
2023-02-28T17:12:16.113Z,80.40
2023-02-28T17:15:01.477Z,77.50
2023-02-28T17:17:48.607Z,82.10
2023-02-28T17:20:33.729Z,81.50
2023-02-28T17:23:18.990Z,79.70
2023-02-28T17:26:07.433Z,80.40
2023-02-28T17:28:59.326Z,79.90
2023-02-28T17:31:44.593Z,82.40
2023-02-28T17:34:29.889Z,83.20
2023-02-28T17:37:15.493Z,84.10
2023-02-28T17:40:00.585Z,84.30
2023-02-28T17:42:46.878Z,84.90
2023-02-28T17:45:31.990Z,84.50
2023-02-28T17:48:17.915Z,85.30
2023-02-28T17:51:03.477Z,85.50
2023-02-28T17:53:49.072Z,87.00
2023-02-28T17:56:34.288Z,86.20
2023-02-28T17:59:19.752Z,88.00
2023-02-28T18:02:04.862Z,88.20
2023-02-28T18:04:50.435Z,90.10
2023-02-28T18:07:38.791Z,89.60
2023-02-28T18:10:24.188Z,90.40
2023-02-28T18:13:09.365Z,88.50
2023-02-28T18:15:55.346Z,89.80
2023-02-28T18:18:40.798Z,90.40
2023-02-28T18:21:25.937Z,90.30
2023-02-28T18:24:12.750Z,89.30
2023-02-28T18:26:58.009Z,89.50
2023-02-28T18:29:43.326Z,90.70
2023-02-28T18:32:29.900Z,90.60
2023-02-28T18:35:15.160Z,90.60
2023-02-28T18:38:16.341Z,91.30
2023-02-28T18:41:05.335Z,90.30
2023-02-28T18:43:52.206Z,90.50
2023-02-28T18:46:38.264Z,90.60
2023-02-28T18:49:23.551Z,90.30
2023-02-28T18:52:08.929Z,90.90
2023-02-28T18:54:54.248Z,90.80
2023-02-28T18:57:39.745Z,90.00
2023-02-28T19:00:25.829Z,90.70
2023-02-28T19:03:12.572Z,91.20
2023-02-28T19:05:59.279Z,91.00
2023-02-28T19:08:45.135Z,91.00
2023-02-28T19:11:30.989Z,90.70
2023-02-28T19:14:16.418Z,92.10
2023-02-28T19:17:01.959Z,90.80
2023-02-28T19:19:47.373Z,90.90
2023-02-28T19:22:32.774Z,92.00
2023-02-28T19:25:19.007Z,91.50
2023-02-28T19:28:04.244Z,91.80
2023-02-28T19:30:52.894Z,91.40
2023-02-28T19:33:38.454Z,91.50
2023-02-28T19:36:23.744Z,91.50
2023-02-28T19:39:09.218Z,91.40
2023-02-28T19:41:54.628Z,90.90
2023-02-28T19:44:40.291Z,91.00
2023-02-28T19:47:25.454Z,91.20
2023-02-28T19:50:11.228Z,91.30
2023-02-28T19:52:58.934Z,91.80
2023-02-28T19:55:47.628Z,91.00
2023-02-28T19:58:33.774Z,91.20
2023-02-28T20:01:20.040Z,91.00
2023-02-28T20:04:05.896Z,92.10
2023-02-28T20:06:51.114Z,91.30
2023-02-28T20:09:36.428Z,91.00
2023-02-28T20:12:24.389Z,91.30
2023-02-28T20:15:10.500Z,91.10
2023-02-28T20:17:57.401Z,91.30
2023-02-28T20:20:42.891Z,91.30
2023-02-28T20:23:28.673Z,91.40
2023-02-28T20:26:15.589Z,91.10
2023-02-28T20:29:00.928Z,91.50
2023-02-28T20:31:46.643Z,91.50
2023-02-28T20:34:31.922Z,91.00
2023-02-28T20:37:17.316Z,91.50
2023-02-28T20:40:04.378Z,91.40
2023-02-28T20:42:49.932Z,91.10
2023-02-28T20:45:35.751Z,90.90
2023-02-28T20:48:21.994Z,91.30
2023-02-28T20:51:07.684Z,91.10
2023-02-28T20:53:52.822Z,91.90
2023-02-28T20:56:38.434Z,91.60
2023-02-28T20:59:23.700Z,91.20
2023-02-28T21:02:14.596Z,92.10
2023-02-28T21:04:59.770Z,91.30
2023-02-28T21:07:45.082Z,92.10
2023-02-28T21:10:30.591Z,91.80
2023-02-28T21:13:15.965Z,92.50
2023-02-28T21:16:10.242Z,92.10
2023-02-28T21:18:56.254Z,91.50
2023-02-28T21:21:43.928Z,91.50
2023-02-28T21:24:29.387Z,92.50
2023-02-28T21:27:14.943Z,91.30
2023-02-28T21:30:00.073Z,92.00
2023-02-28T21:32:45.419Z,91.40
2023-02-28T21:35:31.382Z,91.40
2023-02-28T21:38:16.344Z,92.80
2023-02-28T21:41:12.768Z,92.10
2023-02-28T21:43:58.115Z,92.20
2023-02-28T21:46:47.856Z,92.80
2023-02-28T21:49:33.485Z,91.90
2023-02-28T21:52:21.897Z,92.40
2023-02-28T21:55:07.257Z,92.80
2023-02-28T21:57:52.612Z,92.50
2023-02-28T22:00:37.931Z,93.10
2023-02-28T22:03:23.339Z,92.80
2023-02-28T22:06:14.368Z,92.30
2023-02-28T22:09:02.157Z,93.80
2023-02-28T22:11:47.653Z,93.20
2023-02-28T22:14:33.021Z,94.50
2023-02-28T22:17:18.415Z,93.20
2023-02-28T22:20:04.021Z,93.40
2023-02-28T22:22:48.972Z,93.10
2023-02-28T22:25:37.524Z,93.30
2023-02-28T22:28:23.925Z,93.80
2023-02-28T22:31:18.321Z,92.90
2023-02-28T22:34:06.999Z,94.40
2023-02-28T22:36:52.058Z,93.40
2023-02-28T22:39:37.345Z,94.20
2023-02-28T22:42:22.914Z,93.10
2023-02-28T22:45:08.745Z,93.00
2023-02-28T22:47:54.326Z,93.30
2023-02-28T22:50:39.290Z,93.80
2023-02-28T22:53:24.721Z,93.20
2023-02-28T22:56:12.538Z,93.20
2023-02-28T22:58:59.642Z,93.00
2023-02-28T23:01:44.755Z,93.20
2023-02-28T23:04:29.975Z,93.40
2023-02-28T23:07:15.649Z,92.80
2023-02-28T23:10:01.094Z,93.00
2023-02-28T23:12:52.140Z,93.00
2023-02-28T23:15:40.719Z,93.60
2023-02-28T23:18:25.892Z,94.00
2023-02-28T23:21:11.450Z,94.10
2023-02-28T23:23:56.664Z,93.30
2023-02-28T23:26:44.801Z,93.80
2023-02-28T23:29:30.449Z,94.00
2023-02-28T23:32:15.560Z,93.90
2023-02-28T23:35:00.917Z,93.30
2023-02-28T23:37:46.298Z,93.70
2023-02-28T23:40:31.877Z,94.10
2023-02-28T23:43:17.284Z,93.50
2023-02-28T23:46:03.456Z,94.00
2023-02-28T23:48:48.920Z,93.80
2023-02-28T23:51:33.934Z,93.70
2023-02-28T23:54:19.723Z,93.90
2023-02-28T23:57:04.808Z,93.70
2023-02-28T23:59:50.232Z,94.50
